ZBAA Airport Informations

Runway Information
Runway 18R Length 10499 ft width 164 ft
Elevation 116 ft Threshold ft Heading 173
Runway 36L Length 10499 ft Width 164 ft
Elevation 107 ft Threshold ft Heading 353
Runway 18L Length 12468 ft width 197 ft
Elevation 110 ft Threshold ft Heading 173
Runway 36R Length 12468 ft Width 197 ft
Elevation 99 ft Threshold ft Heading 353
Runway 01 Length 12468 ft width 197 ft
Elevation 94 ft Threshold ft Heading 353
Runway 19 Length 12468 ft Width 197 ft
Elevation 84 ft Threshold ft Heading 173
Airport Frequencies
Type APP Name BEIJING AP Frequency 119.6 MHZ
Type APP Name BEIJING AP Frequency 119.7 MHZ
Type APP Name BEIJING AP Frequency 120.6 MHZ
Type APP Name BEIJING AP Frequency 121.1 MHZ
Type APP Name BEIJING AP Frequency 126.1 MHZ
Type APP Name BEIJING AP Frequency 127.75 MHZ
Type ATIS Name BEIJING AT Frequency 127.6 MHZ
Type CLD Name BEIJING DE Frequency 121.6 MHZ
Type GND Name GND EAST Frequency 121.7 MHZ
Type GND Name BEIJING GN Frequency 121.7 MHZ
Type GND Name GND WEST Frequency 121.9 MHZ
Type TWR Name BEIJING EA Frequency 118.5 MHZ
Type TWR Name BEIJING W Frequency 124.3 MHZ
Airport Navaids
Type VOR-DME Name Beijing Frequency 114700 KHZ
Type VOR-DME Name Shaziying Frequency 117200 KHZ
Airport Weather Information & NOTAM
ADDS - METARS form results

(1210 UTC 14 August 2022)
Data provider http://aviationweather.gov/metar/data/
 
METAR text: ZBAA 141200Z VRB01MPS 8000 SCT005 OVC040 24/24 Q0998 NOSIG
Conditions at: ZBAA (BEIJING/PEKING , CN) observed 1200 UTC 14 August 2022
Temperature: 24.0°C (75°F)
Dewpoint: 24.0°C (75°F) [RH = 100%]
Pressure (altimeter): 29.47 inches Hg (998.0 mb)
Winds: variable direction winds at 2 MPH (2 knots; 1.0 m/s)
Visibility: 5 miles ( 8 km)
Ceiling: 4000 feet AGL
Clouds: scattered clouds at 500 feet AGL
overcast cloud deck at 4000 feet AGL
Weather: no significant weather observed at this time

METAR text: ZBAA 141130Z VRB01MPS 5000 BR SCT005 OVC040 24/24 Q0998 NOSIG
Conditions at: ZBAA (BEIJING/PEKING , CN) observed 1130 UTC 14 August 2022
Temperature: 24.0°C (75°F)
Dewpoint: 24.0°C (75°F) [RH = 100%]
Pressure (altimeter): 29.47 inches Hg (998.0 mb)
Winds: variable direction winds at 2 MPH (2 knots; 1.0 m/s)
Visibility: 3 miles ( 5 km)
Ceiling: 4000 feet AGL
Clouds: scattered clouds at 500 feet AGL
overcast cloud deck at 4000 feet AGL
Weather: BR  (mist)

Forecast for: ZBAA (BEIJING/PEKING , CN)
Text: TAF ZBAA 140902Z 1412/1512 33004MPS 3500 BR NSC TX36/1507Z TN23/1421Z
Forecast period: 1200 UTC 14 August 2022 to 1200 UTC 15 August 2022
Forecast type: FROM: standard forecast or significant change
Winds: from the NNW (330 degrees) at 9 MPH (8 knots; 4.1 m/s)
Visibility: 2.17 miles (3.49 km)
Ceiling: unknown
Clouds: missing
Weather: BR  (mist)